createdAt,value
2022-10-22T00:00:00.666Z,45.15
2022-10-22T00:02:31.362Z,45.16
2022-10-22T00:05:02.269Z,45.21
2022-10-22T00:07:33.713Z,45.19
2022-10-22T00:10:05.539Z,45.15
2022-10-22T00:12:38.613Z,45.16
2022-10-22T00:15:12.270Z,45.26
2022-10-22T00:17:41.612Z,45.32
2022-10-22T00:20:14.185Z,45.10
2022-10-22T00:22:45.043Z,45.25
2022-10-22T00:25:15.914Z,45.30
2022-10-22T00:27:46.681Z,45.38
2022-10-22T00:30:17.824Z,45.57
2022-10-22T00:32:48.676Z,45.65
2022-10-22T00:35:19.533Z,45.60
2022-10-22T00:37:50.245Z,45.41
2022-10-22T00:40:21.087Z,45.49
2022-10-22T00:42:51.921Z,45.33
2022-10-22T00:45:26.129Z,45.39
2022-10-22T00:48:00.682Z,45.32
2022-10-22T00:50:34.964Z,45.34
2022-10-22T00:53:09.891Z,45.35
2022-10-22T00:55:41.886Z,45.43
2022-10-22T00:58:14.304Z,45.28
2022-10-22T01:00:45.928Z,45.31
2022-10-22T01:03:16.956Z,45.36
2022-10-22T01:05:58.294Z,45.38
2022-10-22T01:08:42.600Z,45.34
2022-10-22T01:11:22.901Z,45.40
2022-10-22T01:14:02.385Z,45.09
2022-10-22T01:16:41.526Z,45.20
2022-10-22T01:19:30.584Z,45.22
2022-10-22T01:22:06.461Z,45.28
2022-10-22T01:24:51.593Z,45.29
2022-10-22T01:27:41.116Z,45.32
2022-10-22T01:30:14.130Z,45.33
2022-10-22T01:32:48.432Z,45.43
2022-10-22T01:35:24.096Z,45.51
2022-10-22T01:37:58.136Z,45.47
2022-10-22T01:40:30.870Z,45.44
2022-10-22T01:43:03.789Z,45.62
2022-10-22T01:45:38.229Z,45.44
2022-10-22T01:48:23.731Z,45.57
2022-10-22T01:51:15.360Z,45.46
2022-10-22T01:53:55.435Z,45.51
2022-10-22T01:56:41.288Z,45.63
2022-10-22T01:59:23.236Z,45.52
2022-10-22T02:02:01.216Z,45.74
2022-10-22T02:04:36.359Z,45.69
2022-10-22T02:07:11.623Z,45.62
2022-10-22T02:09:45.029Z,45.79
2022-10-22T02:12:17.640Z,45.58
2022-10-22T02:14:50.578Z,45.67
2022-10-22T02:17:25.554Z,45.77
2022-10-22T02:19:58.800Z,45.74
2022-10-22T02:22:30.753Z,45.94
2022-10-22T02:25:01.802Z,45.93
2022-10-22T02:27:37.461Z,45.89
2022-10-22T02:30:11.530Z,45.82
2022-10-22T02:32:47.813Z,45.67
2022-10-22T02:35:22.219Z,45.71
2022-10-22T02:37:56.491Z,45.83
2022-10-22T02:40:28.055Z,45.70
2022-10-22T02:42:59.004Z,45.63
2022-10-22T02:45:30.232Z,45.62
2022-10-22T02:48:01.169Z,45.61
2022-10-22T02:50:31.948Z,45.65
2022-10-22T02:53:03.085Z,45.59
2022-10-22T02:55:34.023Z,45.54
2022-10-22T02:58:04.861Z,45.51
2022-10-22T03:00:36.143Z,45.45
2022-10-22T03:03:07.205Z,45.44
2022-10-22T03:05:38.045Z,45.43
2022-10-22T03:08:09.021Z,45.42
2022-10-22T03:10:39.739Z,45.26
2022-10-22T03:13:10.391Z,45.28
2022-10-22T03:15:41.046Z,45.24
2022-10-22T03:18:11.889Z,45.13
2022-10-22T03:20:42.602Z,45.27
2022-10-22T03:23:16.014Z,45.23
2022-10-22T03:25:49.538Z,45.25
2022-10-22T03:28:19.768Z,45.30
2022-10-22T03:30:50.488Z,45.52
2022-10-22T03:33:21.461Z,45.36
2022-10-22T03:35:52.212Z,45.51
2022-10-22T03:38:23.588Z,45.51
2022-10-22T03:40:54.565Z,45.41
2022-10-22T03:43:25.391Z,45.45
2022-10-22T03:45:56.037Z,45.44
2022-10-22T03:48:27.045Z,45.48
2022-10-22T03:50:58.033Z,45.53
2022-10-22T03:53:28.742Z,45.60
2022-10-22T03:55:59.402Z,45.44
2022-10-22T03:58:30.447Z,45.44
2022-10-22T04:01:07.491Z,45.36
2022-10-22T04:03:38.903Z,45.52
2022-10-22T04:06:12.718Z,45.54
2022-10-22T04:08:45.320Z,45.50
2022-10-22T04:11:16.914Z,45.47
2022-10-22T04:13:47.536Z,45.37
2022-10-22T04:16:20.463Z,45.39
2022-10-22T04:18:52.417Z,45.46
2022-10-22T04:21:23.567Z,45.44
2022-10-22T04:23:55.100Z,45.59
2022-10-22T04:26:26.052Z,45.47
2022-10-22T04:28:56.680Z,45.61
2022-10-22T04:31:28.476Z,45.49
2022-10-22T04:34:01.451Z,45.58
2022-10-22T04:36:32.591Z,45.58
2022-10-22T04:39:04.815Z,45.75
2022-10-22T04:41:37.660Z,45.68
2022-10-22T04:44:12.356Z,45.69
2022-10-22T04:46:47.009Z,45.64
2022-10-22T04:49:18.670Z,45.65
2022-10-22T04:51:49.317Z,45.67
2022-10-22T04:54:20.163Z,45.72
2022-10-22T04:56:51.092Z,45.80
2022-10-22T04:59:21.705Z,46.02
2022-10-22T05:01:52.346Z,45.99
2022-10-22T05:04:23.095Z,45.87
2022-10-22T05:06:53.910Z,45.74
2022-10-22T05:09:24.657Z,45.92
2022-10-22T05:11:56.129Z,45.81
2022-10-22T05:14:27.479Z,45.82
2022-10-22T05:16:58.218Z,45.86
2022-10-22T05:19:30.908Z,45.81
2022-10-22T05:22:03.789Z,45.71
2022-10-22T05:24:36.948Z,45.78
2022-10-22T05:27:07.868Z,45.80
2022-10-22T05:29:38.850Z,45.89
2022-10-22T05:32:09.509Z,46.04
2022-10-22T05:34:40.545Z,46.20
2022-10-22T05:37:11.312Z,46.26
2022-10-22T05:39:41.901Z,46.39
2022-10-22T05:42:12.538Z,46.54
2022-10-22T05:44:43.511Z,46.51
2022-10-22T05:47:14.338Z,46.64
2022-10-22T05:49:45.076Z,46.69
2022-10-22T05:52:15.918Z,46.64
2022-10-22T05:54:46.718Z,46.82
2022-10-22T05:57:17.699Z,46.83
2022-10-22T05:59:48.794Z,46.86
2022-10-22T06:02:19.552Z,46.93
2022-10-22T06:04:50.527Z,46.67
2022-10-22T06:07:21.369Z,46.78
2022-10-22T06:09:53.947Z,46.61
2022-10-22T06:12:24.890Z,46.64
2022-10-22T06:14:55.912Z,46.60
2022-10-22T06:17:26.776Z,46.62
2022-10-22T06:19:57.551Z,46.79
2022-10-22T06:22:28.487Z,46.67
2022-10-22T06:24:59.296Z,46.92
2022-10-22T06:27:30.283Z,47.01
2022-10-22T06:30:01.349Z,46.86
2022-10-22T06:32:32.363Z,46.83
2022-10-22T06:35:03.025Z,46.60
2022-10-22T06:37:33.773Z,46.88
2022-10-22T06:40:04.779Z,46.85
2022-10-22T06:42:35.637Z,46.96
2022-10-22T06:45:08.144Z,46.66
2022-10-22T06:47:39.119Z,46.72
2022-10-22T06:50:11.288Z,46.85
2022-10-22T06:52:42.019Z,46.42
2022-10-22T06:55:13.270Z,46.42
2022-10-22T06:57:44.310Z,46.48
2022-10-22T07:00:16.862Z,46.59
2022-10-22T07:02:56.390Z,46.45
2022-10-22T07:05:29.921Z,46.27
2022-10-22T07:08:00.673Z,46.34
2022-10-22T07:10:31.480Z,46.40
2022-10-22T07:13:02.514Z,46.30
2022-10-22T07:15:33.284Z,46.18
2022-10-22T07:18:04.954Z,46.27
2022-10-22T07:20:35.825Z,46.14
2022-10-22T07:23:06.634Z,46.02
2022-10-22T07:25:37.343Z,46.17
2022-10-22T07:28:08.124Z,46.25
2022-10-22T07:30:40.461Z,46.30
2022-10-22T07:33:11.623Z,46.39
2022-10-22T07:35:43.182Z,46.33
2022-10-22T07:38:14.127Z,46.32
2022-10-22T07:40:44.827Z,46.23
2022-10-22T07:43:15.473Z,46.19
2022-10-22T07:45:46.157Z,46.28
2022-10-22T07:48:17.592Z,46.31
2022-10-22T07:50:49.898Z,46.21
2022-10-22T07:53:21.335Z,46.29
2022-10-22T07:55:53.438Z,46.32
2022-10-22T07:58:25.006Z,46.28
2022-10-22T08:00:58.230Z,46.20
2022-10-22T08:03:29.939Z,46.20
2022-10-22T08:06:01.396Z,46.32
2022-10-22T08:08:32.394Z,46.32
2022-10-22T08:11:04.167Z,46.29
2022-10-22T08:13:34.902Z,46.29
2022-10-22T08:16:07.213Z,46.35
2022-10-22T08:18:38.729Z,46.35
2022-10-22T08:21:09.960Z,46.24
2022-10-22T08:23:40.734Z,46.13
2022-10-22T08:26:12.460Z,46.15
2022-10-22T08:28:43.198Z,46.13
2022-10-22T08:31:14.364Z,46.26
2022-10-22T08:33:45.207Z,46.13
2022-10-22T08:36:15.890Z,46.25
2022-10-22T08:38:46.884Z,46.18
2022-10-22T08:41:20.489Z,46.33
2022-10-22T08:44:22.156Z,46.20
2022-10-22T08:47:12.831Z,46.29
2022-10-22T08:49:44.444Z,46.23
2022-10-22T08:52:18.042Z,46.22
2022-10-22T08:54:54.811Z,46.38
2022-10-22T08:57:41.873Z,46.30
2022-10-22T09:00:21.519Z,46.24
2022-10-22T09:02:58.287Z,46.13
2022-10-22T09:05:40.235Z,46.06
2022-10-22T09:08:13.622Z,46.06
2022-10-22T09:10:48.016Z,45.92
2022-10-22T09:13:21.680Z,46.01
2022-10-22T09:15:53.895Z,45.97
2022-10-22T09:18:36.465Z,46.02
2022-10-22T09:21:19.133Z,45.88
2022-10-22T09:24:04.471Z,45.99
2022-10-22T09:26:39.137Z,45.80
2022-10-22T09:29:15.155Z,45.72
2022-10-22T09:31:46.014Z,45.82
2022-10-22T09:34:21.341Z,45.79
2022-10-22T09:37:01.027Z,45.92
2022-10-22T09:39:33.264Z,45.89
2022-10-22T09:42:04.122Z,45.83
2022-10-22T09:44:37.630Z,45.94
2022-10-22T09:47:42.582Z,45.72
2022-10-22T09:50:27.987Z,45.87
2022-10-22T09:53:02.925Z,45.77
2022-10-22T09:55:34.822Z,45.86
2022-10-22T09:58:05.922Z,45.81
2022-10-22T10:00:39.214Z,45.96
2022-10-22T10:03:16.692Z,45.96
2022-10-22T10:05:50.465Z,45.67
2022-10-22T10:08:19.776Z,45.82
2022-10-22T10:10:55.543Z,45.70
2022-10-22T10:13:48.142Z,45.83
2022-10-22T10:16:32.268Z,45.74
2022-10-22T10:19:19.201Z,45.83
2022-10-22T10:22:02.693Z,45.78
2022-10-22T10:24:46.406Z,45.92
2022-10-22T10:27:26.927Z,45.86
2022-10-22T10:30:06.953Z,45.81
2022-10-22T10:33:11.861Z,45.87
2022-10-22T10:35:52.429Z,45.82
2022-10-22T10:38:34.245Z,45.86
2022-10-22T10:41:16.379Z,45.76
2022-10-22T10:44:05.883Z,45.83
2022-10-22T10:46:48.916Z,45.77
2022-10-22T10:49:27.028Z,45.88
2022-10-22T10:52:06.135Z,45.67
2022-10-22T10:54:46.408Z,45.71
2022-10-22T10:57:26.699Z,45.80
2022-10-22T11:00:06.468Z,45.86
2022-10-22T11:03:03.461Z,45.85
2022-10-22T11:05:43.090Z,45.72
2022-10-22T11:08:20.758Z,45.73
2022-10-22T11:10:56.289Z,45.73
2022-10-22T11:13:35.547Z,45.79
2022-10-22T11:16:13.248Z,45.75
2022-10-22T11:18:50.991Z,45.73
2022-10-22T11:21:28.427Z,45.73
2022-10-22T11:24:09.656Z,45.68
2022-10-22T11:26:46.578Z,45.59
2022-10-22T11:29:23.972Z,45.57
2022-10-22T11:31:57.239Z,45.50
2022-10-22T11:34:35.577Z,45.41
2022-10-22T11:37:08.208Z,45.37
2022-10-22T11:39:44.149Z,45.45
2022-10-22T11:42:22.823Z,45.45
2022-10-22T11:45:04.014Z,45.44
2022-10-22T11:47:43.208Z,45.41
2022-10-22T11:50:25.963Z,45.52
2022-10-22T11:53:03.374Z,45.44
2022-10-22T11:55:48.528Z,45.37
2022-10-22T11:58:42.350Z,45.28
2022-10-22T12:01:29.897Z,45.31
2022-10-22T12:04:24.667Z,45.44
2022-10-22T12:07:25.189Z,45.47
2022-10-22T12:09:56.819Z,45.51
2022-10-22T12:12:29.586Z,45.49
2022-10-22T12:15:00.966Z,45.24
2022-10-22T12:17:32.559Z,45.39
2022-10-22T12:20:09.333Z,45.35
2022-10-22T12:22:41.450Z,45.26
2022-10-22T12:25:22.165Z,45.11
2022-10-22T12:27:57.287Z,45.14
2022-10-22T12:30:30.703Z,45.09
2022-10-22T12:33:03.619Z,45.14
2022-10-22T12:35:36.793Z,45.22
2022-10-22T12:38:14.927Z,45.04
2022-10-22T12:40:48.433Z,45.13
2022-10-22T12:43:25.221Z,45.18
2022-10-22T12:45:57.732Z,45.01
2022-10-22T12:48:34.135Z,45.01
2022-10-22T12:51:08.218Z,45.05
2022-10-22T12:53:44.264Z,45.08
2022-10-22T12:56:17.404Z,45.20
2022-10-22T12:58:53.132Z,45.01
2022-10-22T13:01:26.652Z,45.02
2022-10-22T13:04:05.993Z,45.11
2022-10-22T13:06:37.571Z,45.19
2022-10-22T13:09:19.675Z,45.25
2022-10-22T13:11:58.303Z,45.09
2022-10-22T13:14:33.191Z,45.10
2022-10-22T13:17:10.025Z,45.07
2022-10-22T13:19:44.177Z,45.08
2022-10-22T13:22:33.937Z,45.04
2022-10-22T13:25:25.245Z,45.02
2022-10-22T13:27:59.014Z,45.08
2022-10-22T13:30:32.562Z,45.01
2022-10-22T13:33:02.991Z,44.97
2022-10-22T13:35:35.924Z,45.05
2022-10-22T13:38:15.928Z,45.19
2022-10-22T13:40:46.866Z,45.17
2022-10-22T13:43:18.220Z,45.08
2022-10-22T13:45:52.998Z,45.12
2022-10-22T13:48:25.697Z,45.40
2022-10-22T13:50:56.718Z,45.34
2022-10-22T13:53:29.979Z,45.42
2022-10-22T13:56:01.022Z,45.40
2022-10-22T13:58:31.929Z,45.08
2022-10-22T14:01:08.926Z,45.29
2022-10-22T14:03:40.831Z,45.12
2022-10-22T14:06:15.786Z,45.12
2022-10-22T14:08:50.619Z,45.19
2022-10-22T14:11:21.637Z,45.13
2022-10-22T14:13:52.764Z,45.27
2022-10-22T14:16:26.263Z,45.29
2022-10-22T14:18:55.617Z,45.39
2022-10-22T14:21:26.734Z,45.26
2022-10-22T14:23:57.697Z,45.45
2022-10-22T14:26:33.006Z,45.31
2022-10-22T14:29:09.131Z,45.17
2022-10-22T14:31:43.861Z,45.31
2022-10-22T14:34:16.915Z,45.31
2022-10-22T14:36:47.949Z,45.48
2022-10-22T14:39:19.284Z,45.25
2022-10-22T14:41:51.553Z,45.15
2022-10-22T14:44:24.152Z,45.28
2022-10-22T14:46:56.351Z,45.35
2022-10-22T14:49:27.348Z,45.35
2022-10-22T14:51:58.188Z,45.35
2022-10-22T14:54:29.218Z,45.34
2022-10-22T14:56:59.995Z,45.10
2022-10-22T14:59:31.221Z,45.12
2022-10-22T15:02:02.271Z,45.09
2022-10-22T15:04:33.103Z,45.15
2022-10-22T15:07:04.151Z,45.02
2022-10-22T15:09:35.092Z,45.16
2022-10-22T15:12:06.777Z,45.19
2022-10-22T15:14:37.698Z,45.22
2022-10-22T15:17:08.787Z,45.30
2022-10-22T15:19:39.706Z,45.21
2022-10-22T15:22:10.536Z,45.11
2022-10-22T15:24:43.801Z,45.28
2022-10-22T15:27:15.208Z,45.22
2022-10-22T15:29:45.912Z,45.23
2022-10-22T15:32:16.750Z,45.27
2022-10-22T15:34:47.724Z,45.29
2022-10-22T15:37:18.636Z,45.30
2022-10-22T15:39:49.380Z,45.22
2022-10-22T15:42:20.422Z,45.20
2022-10-22T15:44:58.319Z,45.27
2022-10-22T15:47:31.247Z,45.34
2022-10-22T15:50:02.158Z,45.24
2022-10-22T15:52:33.818Z,45.26
2022-10-22T15:55:07.078Z,45.23
2022-10-22T15:57:38.116Z,45.20
2022-10-22T16:00:11.804Z,45.09
2022-10-22T16:02:42.872Z,45.19
2022-10-22T16:05:14.150Z,44.95
2022-10-22T16:07:45.301Z,45.01
2022-10-22T16:10:16.058Z,44.99
2022-10-22T16:12:47.005Z,45.11
2022-10-22T16:15:17.954Z,45.06
2022-10-22T16:17:48.975Z,45.18
2022-10-22T16:20:19.980Z,45.13
2022-10-22T16:22:53.352Z,45.11
2022-10-22T16:25:24.777Z,45.29
2022-10-22T16:27:55.552Z,45.16
2022-10-22T16:30:26.546Z,45.23
2022-10-22T16:32:57.487Z,45.45
2022-10-22T16:35:28.329Z,45.38
2022-10-22T16:37:59.174Z,45.44
2022-10-22T16:40:29.892Z,45.35
2022-10-22T16:43:00.818Z,45.39
2022-10-22T16:45:31.731Z,45.46
2022-10-22T16:48:02.634Z,45.44
2022-10-22T16:50:33.473Z,45.60
2022-10-22T16:53:04.310Z,45.60
2022-10-22T16:55:38.979Z,45.61
2022-10-22T16:58:09.960Z,45.64
2022-10-22T17:00:40.984Z,45.62
2022-10-22T17:03:12.437Z,45.70
2022-10-22T17:05:43.269Z,45.53
2022-10-22T17:08:14.679Z,45.53
2022-10-22T17:10:45.506Z,45.67
2022-10-22T17:13:16.468Z,45.64
2022-10-22T17:15:47.275Z,45.56
2022-10-22T17:18:18.540Z,45.43
2022-10-22T17:20:49.224Z,45.55
2022-10-22T17:23:20.235Z,45.69
2022-10-22T17:25:58.340Z,45.80
2022-10-22T17:28:29.997Z,45.68
2022-10-22T17:31:09.444Z,45.53
2022-10-22T17:33:40.158Z,45.41
2022-10-22T17:36:13.628Z,45.76
2022-10-22T17:38:46.764Z,45.39
2022-10-22T17:41:19.854Z,45.47
2022-10-22T17:43:50.945Z,45.48
2022-10-22T17:46:23.300Z,45.59
2022-10-22T17:48:55.309Z,45.49
2022-10-22T17:51:28.041Z,45.64
2022-10-22T17:53:59.071Z,45.51
2022-10-22T17:56:31.021Z,45.39
2022-10-22T17:59:03.115Z,45.61
2022-10-22T18:01:36.081Z,45.50
2022-10-22T18:04:09.699Z,45.53
2022-10-22T18:06:38.901Z,45.43
2022-10-22T18:09:17.220Z,45.45
2022-10-22T18:11:48.128Z,45.51
2022-10-22T18:14:20.249Z,45.77
2022-10-22T18:16:52.342Z,45.48
2022-10-22T18:19:24.758Z,45.70
2022-10-22T18:21:55.742Z,45.56
2022-10-22T18:24:26.900Z,45.66
2022-10-22T18:26:58.124Z,45.59
2022-10-22T18:29:29.152Z,45.46
2022-10-22T18:32:00.006Z,45.45
2022-10-22T18:34:30.837Z,45.55
2022-10-22T18:37:01.784Z,45.61
2022-10-22T18:39:32.832Z,45.51
2022-10-22T18:42:06.466Z,45.49
2022-10-22T18:44:38.309Z,45.46
2022-10-22T18:47:09.631Z,45.41
2022-10-22T18:49:40.954Z,45.49
2022-10-22T18:52:11.953Z,45.68
2022-10-22T18:54:43.001Z,45.50
2022-10-22T18:57:14.342Z,45.60
2022-10-22T18:59:45.204Z,45.50
2022-10-22T19:02:17.245Z,45.62
2022-10-22T19:04:48.548Z,45.67
2022-10-22T19:07:20.057Z,45.61
2022-10-22T19:09:51.506Z,45.59
2022-10-22T19:12:23.474Z,45.67
2022-10-22T19:14:54.293Z,45.51
2022-10-22T19:17:26.557Z,45.58
2022-10-22T19:19:57.372Z,45.58
2022-10-22T19:22:28.289Z,45.61
2022-10-22T19:24:59.781Z,45.29
2022-10-22T19:27:31.767Z,45.42
2022-10-22T19:30:03.349Z,45.33
2022-10-22T19:32:34.697Z,45.37
2022-10-22T19:35:06.410Z,45.19
2022-10-22T19:37:38.722Z,45.32
2022-10-22T19:40:11.698Z,45.22
2022-10-22T19:42:44.518Z,45.37
2022-10-22T19:45:15.664Z,45.20
2022-10-22T19:47:46.863Z,45.26
2022-10-22T19:50:17.955Z,45.42
2022-10-22T19:52:48.893Z,45.38
2022-10-22T19:55:20.229Z,45.42
2022-10-22T19:57:51.190Z,45.17
2022-10-22T20:00:23.095Z,45.39
2022-10-22T20:02:53.966Z,45.19
2022-10-22T20:05:24.759Z,45.32
2022-10-22T20:07:55.913Z,45.49
2022-10-22T20:10:26.934Z,45.40
2022-10-22T20:12:57.982Z,45.29
2022-10-22T20:15:29.019Z,45.19
2022-10-22T20:17:59.750Z,45.36
2022-10-22T20:20:30.642Z,45.52
2022-10-22T20:23:01.435Z,45.39
2022-10-22T20:25:32.329Z,45.36
2022-10-22T20:28:03.671Z,45.26
2022-10-22T20:30:35.076Z,45.37
2022-10-22T20:33:05.931Z,45.46
2022-10-22T20:35:38.106Z,45.45
2022-10-22T20:38:13.874Z,45.66
2022-10-22T20:40:44.684Z,45.66
2022-10-22T20:43:15.405Z,45.53
2022-10-22T20:45:46.143Z,45.70
2022-10-22T20:48:16.943Z,45.65
2022-10-22T20:50:47.853Z,45.44
2022-10-22T20:53:18.839Z,45.54
2022-10-22T20:55:51.566Z,45.96
2022-10-22T20:58:24.581Z,45.67
2022-10-22T21:00:58.666Z,45.75
2022-10-22T21:03:29.645Z,45.72
2022-10-22T21:06:00.398Z,45.52
2022-10-22T21:08:31.264Z,45.66
2022-10-22T21:11:02.209Z,45.41
2022-10-22T21:13:34.211Z,45.68
2022-10-22T21:16:12.317Z,45.79
2022-10-22T21:18:43.431Z,45.73
2022-10-22T21:21:14.197Z,45.74
2022-10-22T21:23:45.243Z,45.76
2022-10-22T21:26:16.942Z,45.86
2022-10-22T21:28:48.147Z,45.86
2022-10-22T21:31:22.109Z,45.93
2022-10-22T21:33:53.920Z,45.85
2022-10-22T21:36:26.009Z,45.75
2022-10-22T21:38:56.932Z,45.80
2022-10-22T21:41:27.822Z,45.82
2022-10-22T21:43:58.619Z,45.96
2022-10-22T21:46:30.078Z,46.13
2022-10-22T21:49:02.841Z,45.93
2022-10-22T21:51:38.229Z,45.95
2022-10-22T21:54:09.154Z,46.16
2022-10-22T21:56:40.269Z,46.24
2022-10-22T21:59:11.140Z,46.18
2022-10-22T22:01:41.908Z,46.24
2022-10-22T22:04:13.317Z,46.23
2022-10-22T22:06:43.980Z,46.24
2022-10-22T22:09:14.679Z,46.28
2022-10-22T22:11:45.394Z,46.36
2022-10-22T22:14:16.107Z,46.44
2022-10-22T22:16:46.907Z,46.36
2022-10-22T22:19:17.752Z,46.44
2022-10-22T22:21:48.488Z,46.49
2022-10-22T22:24:19.247Z,46.65
2022-10-22T22:26:50.818Z,46.67
2022-10-22T22:29:21.517Z,46.63
2022-10-22T22:31:52.285Z,46.52
2022-10-22T22:34:23.186Z,46.64
2022-10-22T22:36:54.035Z,46.65
2022-10-22T22:39:25.286Z,46.60
2022-10-22T22:41:56.266Z,46.50
2022-10-22T22:44:27.308Z,46.57
2022-10-22T22:46:58.011Z,46.59
2022-10-22T22:49:28.933Z,46.61
2022-10-22T22:52:00.152Z,46.57
2022-10-22T22:54:31.000Z,46.60
2022-10-22T22:57:01.729Z,46.68
2022-10-22T22:59:32.407Z,46.49
2022-10-22T23:02:03.016Z,46.52
2022-10-22T23:04:33.790Z,46.52
2022-10-22T23:07:04.691Z,46.53
2022-10-22T23:09:35.676Z,46.51
2022-10-22T23:12:07.272Z,46.42
2022-10-22T23:14:37.935Z,46.36
2022-10-22T23:17:08.912Z,46.45
2022-10-22T23:19:39.574Z,46.52
2022-10-22T23:22:10.442Z,46.47
2022-10-22T23:24:42.223Z,46.69
2022-10-22T23:27:13.760Z,46.63
2022-10-22T23:29:44.454Z,46.55
2022-10-22T23:32:16.819Z,46.44
2022-10-22T23:34:48.008Z,46.53
2022-10-22T23:37:18.787Z,46.51
2022-10-22T23:39:49.751Z,46.51
2022-10-22T23:42:20.695Z,46.65
2022-10-22T23:44:51.453Z,46.63
2022-10-22T23:47:22.387Z,46.60
2022-10-22T23:49:53.422Z,46.49
2022-10-22T23:52:24.493Z,46.55
2022-10-22T23:54:55.368Z,46.32
2022-10-22T23:57:26.564Z,46.73
2022-10-22T23:59:57.396Z,46.78
